MMGL/GDL METAR and TAF weather

Enter ICAO airport designator
Station Type Date Time Source
MMGL METAR 2021/03/04 23:52 UTC NOAA

MMGL 042352Z 28007KT 8SM SKC 29/M06 A3011 RMK SLP082 57013 904


Station Type Date Time Source
MMGL Decoded METAR 2021/03/04 23:52 UTC NOAA

Don Miguel / Guadalaj, Mexico (MMGL) 20-31N 103-19W
Mar 04, 2021 - 06:52 PM EST / 2021.03.04 2352 UTC
Wind: from the W (280 degrees) at 8 MPH (7 KT):0
Visibility: 8 mile(s):0
Sky conditions: clear
Temperature: 84 F (29 C)
Dew Point: 21 F (-6 C)
Relative Humidity: 9%
Pressure (altimeter): 30.11 in. Hg (1019 hPa)
Pressure tendency: 0.04 inches (1.3 hPa) lower than three hours ago
ob: MMGL 042352Z 28007KT 8SM SKC 29/M06 A3011 RMK SLP082 57013 904
cycle: 0

Station Type Date Time Source
MMGL TAF 2021/03/04 18:35 UTC NOAA

TAF MMGL 041628Z 0418/0524 31010KT P6SM SCT250 TX31/0422Z TN11/0513Z
FM050300 20005KT 6SM HZ SCT250
TEMPO 0511/0515 4SM HZ
FM051700 34005KT 6SM HZ SKC
BECMG 0519/0520 29010KT

Example: see airport list